createdAt,value
2018-06-18T16:47:21.275Z,99356.74
2018-06-18T16:49:50.906Z,99361.88
2018-06-18T16:52:20.895Z,99359.94
2018-06-18T16:54:50.437Z,99362.25
2018-06-18T16:57:20.235Z,99375.69
2018-06-18T16:59:49.868Z,99371.55
2018-06-18T17:02:19.536Z,99376.54
2018-06-18T17:04:49.163Z,99371.39
2018-06-18T17:07:18.960Z,99363.14
2018-06-18T17:09:48.576Z,99368.06
2018-06-18T17:12:18.140Z,99374.03
2018-06-18T17:14:47.788Z,99375.35
2018-06-18T17:17:17.565Z,99371.82
2018-06-18T17:19:47.411Z,99370.24
2018-06-18T17:22:17.025Z,99372.62
2018-06-18T17:24:50.405Z,99373.52
2018-06-18T17:27:21.438Z,99380.27
2018-06-18T17:29:51.163Z,99369.49
2018-06-18T17:32:20.707Z,99373.61
2018-06-18T17:34:50.434Z,99376.84
2018-06-18T17:37:19.977Z,99368.55
2018-06-18T17:39:49.557Z,99374.80
2018-06-18T17:42:20.184Z,99365.89
2018-06-18T17:44:49.804Z,99368.34
2018-06-18T17:47:19.299Z,99371.05
2018-06-18T17:49:48.890Z,99367.55
2018-06-18T17:52:18.544Z,99363.78
2018-06-18T17:54:48.042Z,99369.20
2018-06-18T17:57:17.677Z,99365.11
2018-06-18T17:59:47.212Z,99364.05
2018-06-18T18:02:16.865Z,99365.12
2018-06-18T18:04:46.423Z,99366.69
2018-06-18T18:07:16.048Z,99361.84
2018-06-18T18:09:45.528Z,99362.03
2018-06-18T18:12:14.896Z,99365.00
2018-06-18T18:14:44.468Z,99369.55
2018-06-18T18:17:13.968Z,99365.47
2018-06-18T18:19:43.528Z,99361.16
2018-06-18T18:22:13.290Z,99357.88
2018-06-18T18:24:42.785Z,99351.91
2018-06-18T18:27:12.615Z,99354.25
2018-06-18T18:29:42.103Z,99362.83
2018-06-18T18:32:11.774Z,99351.83
2018-06-18T18:34:41.226Z,99355.01
2018-06-18T18:37:10.898Z,99351.77
2018-06-18T18:39:40.450Z,99349.61
2018-06-18T18:42:09.999Z,99343.63
2018-06-18T18:44:39.560Z,99348.42
2018-06-18T18:47:09.157Z,99347.83
2018-06-18T18:49:39.798Z,99349.98
2018-06-18T18:52:09.489Z,99354.00
2018-06-18T18:56:03.987Z,99361.22
2018-06-18T18:59:04.000Z,99356.14
2018-06-18T19:01:33.924Z,99357.95
2018-06-18T19:04:07.092Z,99360.91
2018-06-18T19:06:36.861Z,99361.36
2018-06-18T19:09:10.280Z,99366.50
2018-06-18T19:11:41.476Z,99362.45
2018-06-18T19:14:11.079Z,99367.83
2018-06-18T19:16:40.660Z,99374.20
2018-06-18T19:19:10.417Z,99375.52
2018-06-18T19:21:39.957Z,99377.66
2018-06-18T19:24:09.478Z,99378.66
2018-06-18T19:26:39.042Z,99379.98
2018-06-18T19:29:08.588Z,99382.52
2018-06-18T19:31:38.681Z,99384.16
2018-06-18T19:34:13.383Z,99393.58
2018-06-18T19:36:52.208Z,99391.36
2018-06-18T19:39:24.440Z,99396.64
2018-06-18T19:41:54.039Z,99394.53
2018-06-18T19:44:23.750Z,99399.33
2018-06-18T19:47:49.699Z,99409.41
2018-06-18T19:50:19.641Z,99406.79
2018-06-18T19:52:49.834Z,99401.70
2018-06-18T19:55:26.598Z,99406.56
2018-06-18T19:57:56.314Z,99408.62
2018-06-18T20:00:44.482Z,99410.27
2018-06-18T20:03:14.394Z,99414.16
2018-06-18T20:05:44.165Z,99411.42
2018-06-18T20:08:17.890Z,99414.30
2018-06-18T20:10:47.527Z,99414.50
2018-06-18T20:13:17.628Z,99411.00
2018-06-18T20:15:50.471Z,99419.16
2018-06-18T20:18:20.123Z,99430.06
2018-06-18T20:20:49.770Z,99428.34
2018-06-18T20:23:23.492Z,99430.41
2018-06-18T20:26:00.305Z,99427.16
2018-06-18T20:28:30.117Z,99426.17
2018-06-18T20:30:59.802Z,99430.65
2018-06-18T20:33:30.782Z,99429.35
2018-06-18T20:36:07.092Z,99435.89
2018-06-18T20:38:36.681Z,99438.36
2018-06-18T20:41:06.641Z,99432.97
2018-06-18T20:43:46.893Z,99430.68
2018-06-18T20:46:16.427Z,99440.21
2018-06-18T20:48:46.097Z,99436.37
2018-06-18T20:51:16.321Z,99430.82
2018-06-18T20:53:46.002Z,99435.46
2018-06-18T20:56:15.549Z,99437.23
2018-06-18T20:58:45.347Z,99442.84
2018-06-18T21:01:15.088Z,99443.53
2018-06-18T21:03:44.630Z,99434.11
2018-06-18T21:06:20.253Z,99433.84
2018-06-18T21:08:50.843Z,99433.77
2018-06-18T21:11:20.432Z,99433.12
2018-06-18T21:13:50.773Z,99438.56
2018-06-18T21:16:20.279Z,99442.27
2018-06-18T21:18:50.356Z,99444.46
2018-06-18T21:21:20.155Z,99450.95
2018-06-18T21:23:49.932Z,99456.22
2018-06-18T21:26:19.532Z,99452.25
2018-06-18T21:28:49.355Z,99451.73
2018-06-18T21:31:19.018Z,99453.78
2018-06-18T21:33:48.675Z,99456.98
2018-06-18T21:36:19.439Z,99454.16
2018-06-18T21:38:49.198Z,99459.84
2018-06-18T21:41:18.994Z,99451.74
2018-06-18T21:43:48.585Z,99451.11
2018-06-18T21:46:18.124Z,99451.43
2018-06-18T21:48:47.627Z,99455.88
2018-06-18T21:51:17.248Z,99458.34
2018-06-18T21:53:47.047Z,99457.00
2018-06-18T21:56:16.651Z,99457.88
2018-06-18T21:58:46.162Z,99461.25
2018-06-18T22:01:20.435Z,99460.25
2018-06-18T22:03:49.897Z,99459.05
2018-06-18T22:06:19.390Z,99460.09
2018-06-18T22:08:49.113Z,99447.88
2018-06-18T22:11:18.814Z,99453.94
2018-06-18T22:13:48.547Z,99454.10
2018-06-18T22:16:18.346Z,99456.84
2018-06-18T22:18:47.916Z,99453.31
2018-06-18T22:21:17.643Z,99450.86
2018-06-18T22:23:47.170Z,99445.22
2018-06-18T22:26:16.738Z,99443.48
2018-06-18T22:28:46.260Z,99440.97
2018-06-18T22:31:15.734Z,99447.77
2018-06-18T22:33:45.207Z,99442.27
2018-06-18T22:36:14.784Z,99439.19
2018-06-18T22:38:44.375Z,99442.45
2018-06-18T22:41:13.856Z,99440.04
2018-06-18T22:43:43.691Z,99437.75
2018-06-18T22:46:13.411Z,99437.67
2018-06-18T22:48:43.386Z,99437.25
2018-06-18T22:51:12.976Z,99444.03
2018-06-18T22:53:42.609Z,99445.86
2018-06-18T22:56:12.274Z,99437.86
2018-06-18T22:58:42.682Z,99447.79
2018-06-18T23:01:12.277Z,99446.02
2018-06-18T23:03:41.991Z,99444.12
2018-06-18T23:06:11.621Z,99444.72
2018-06-18T23:08:41.372Z,99447.81
2018-06-18T23:11:14.030Z,99438.81
2018-06-18T23:13:43.946Z,99442.93
2018-06-18T23:16:14.609Z,99450.22
2018-06-18T23:18:44.888Z,99444.02
2018-06-18T23:21:14.549Z,99439.56
2018-06-18T23:23:44.207Z,99445.92
2018-06-18T23:26:13.676Z,99444.30
2018-06-18T23:28:49.396Z,99446.23
2018-06-18T23:31:18.834Z,99446.48
2018-06-18T23:34:17.424Z,99444.83
2018-06-18T23:36:48.002Z,99449.84
2018-06-18T23:39:24.430Z,99455.69
2018-06-18T23:41:58.851Z,99453.23
2018-06-18T23:44:33.889Z,99456.20
2018-06-18T23:47:03.657Z,99457.14
2018-06-18T23:49:33.285Z,99460.80
2018-06-18T23:52:02.810Z,99465.81
2018-06-18T23:54:32.430Z,99462.19
2018-06-18T23:57:02.784Z,99464.35
2018-06-18T23:59:36.069Z,99467.92
